Time;durP1;ratioP1;P1;durP2;ratioP2;P2;SDS_P1;SDS_P2;PMS_P1;PMS_P2;Temp;Humidity;BMP_temperature;BMP_pressure;BME280_temperature;BME280_humidity;BME280_pressure;Samples;Min_cycle;Max_cycle;Signal;HPM_P1;HPM_P2
2022/07/13 00:00:53;;;;;;;;;;;;;;;20.89;65.06;102052.91;5052506;28;19940;-87
2022/07/13 00:03:18;;;;;;;;;;;;;;;20.88;65.45;102053.84;5052504;28;19917;-87
2022/07/13 00:05:43;;;;;;;;;;;;;;;20.88;64.96;102052.97;5053158;28;19913;-87
2022/07/13 00:08:08;;;;;;;;;;;;;;;20.85;65.81;102048.69;5052580;28;19916;-87
2022/07/13 00:10:33;;;;;;;;;;;;;;;20.81;65.57;102045.31;5052368;28;20340;-87
2022/07/13 00:12:59;;;;;;;;;;;;;;;20.77;66.12;102038.41;5052781;28;19912;-88
2022/07/13 00:15:24;;;;;;;;;;;;;;;20.74;66.79;102027.09;5053039;28;19913;-88
2022/07/13 00:17:49;;;;;;;;;;;;;;;20.69;66.01;102016.75;5051734;28;20261;-87
2022/07/13 00:20:14;;;;;;;;;;;;;;;20.70;66.38;102020.22;5052572;28;19963;-87
2022/07/13 00:22:39;;;;;;;;;;;;;;;20.67;65.71;102019.41;5052787;28;20269;-88
2022/07/13 00:25:06;;;;;;;;;;;;;;;20.71;66.25;102007.00;5051736;28;19967;-87
2022/07/13 00:27:31;;;;;;;;;;;;;;;20.72;65.66;102007.84;5052997;28;20003;-87
2022/07/13 00:29:57;;;;;;;;;;;;;;;20.71;66.04;102006.13;5052814;28;20387;-88
2022/07/13 00:32:22;;;;;;;;;;;;;;;20.71;66.36;102007.00;5052360;28;19917;-88
2022/07/13 00:34:47;;;;;;;;;;;;;;;20.71;66.17;102003.47;5052779;28;19966;-87
2022/07/13 00:37:12;;;;;;;;;;;;;;;20.68;65.73;101997.41;5052372;28;19923;-87
2022/07/13 00:39:37;;;;;;;;;;;;;;;20.68;65.61;101989.50;5052430;28;20299;-87
2022/07/13 00:42:03;;;;;;;;;;;;;;;20.68;65.99;101988.63;5052183;28;19923;-87
2022/07/13 00:44:28;;;;;;;;;;;;;;;20.64;66.27;101985.28;5052793;28;20059;-87
2022/07/13 00:46:53;;;;;;;;;;;;;;;20.59;66.15;101987.22;5051449;28;19920;-88
2022/07/13 00:49:19;;;;;;;;;;;;;;;20.57;66.52;101975.03;5052901;28;20042;-87
2022/07/13 00:51:44;;;;;;;;;;;;;;;20.52;66.25;101975.22;5055481;28;19913;-88
2022/07/13 00:54:10;;;;;;;;;;;;;;;20.46;68.76;101965.75;5055170;28;19912;-87
2022/07/13 00:56:36;;;;;;;;;;;;;;;20.43;66.76;101968.50;5056410;28;19916;-87
2022/07/13 00:59:04;;;;;;;;;;;;;;;20.42;66.75;101972.06;5055640;28;20451;-88
2022/07/13 01:01:29;;;;;;;;;;;;;;;20.42;66.43;101964.16;5056346;28;19913;-87
2022/07/13 01:03:54;;;;;;;;;;;;;;;20.42;66.53;101972.06;5055885;28;19919;-88
2022/07/13 01:06:19;;;;;;;;;;;;;;;20.41;67.45;101970.34;5055412;28;19913;-87
2022/07/13 01:08:46;;;;;;;;;;;;;;;20.40;66.48;101955.44;5055527;28;19916;-87
2022/07/13 01:11:11;;;;;;;;;;;;;;;20.40;66.34;101963.34;5055745;28;19956;-87
2022/07/13 01:13:37;;;;;;;;;;;;;;;20.40;66.29;101959.88;5055583;28;19959;-87
2022/07/13 01:16:03;;;;;;;;;;;;;;;20.39;66.39;101964.25;5056074;28;19916;-87
2022/07/13 01:18:30;;;;;;;;;;;;;;;20.39;66.53;101958.13;5055750;28;19994;-88
2022/07/13 01:20:56;;;;;;;;;;;;;;;20.39;67.03;101951.06;5055435;28;19920;-87
2022/07/13 01:23:21;;;;;;;;;;;;;;;20.36;66.96;101957.34;5055980;28;20012;-88
2022/07/13 01:25:47;;;;;;;;;;;;;;;20.34;66.86;101958.31;5055683;28;19912;-88
2022/07/13 01:28:13;;;;;;;;;;;;;;;20.32;66.94;101949.59;5055041;28;20001;-88
2022/07/13 01:30:38;;;;;;;;;;;;;;;20.31;66.61;101958.44;5055664;28;19944;-88
2022/07/13 01:33:03;;;;;;;;;;;;;;;20.32;66.46;101960.16;5055249;28;20368;-88
2022/07/13 01:35:29;;;;;;;;;;;;;;;20.33;66.89;101960.09;5054095;28;19923;-87
2022/07/13 01:37:54;;;;;;;;;;;;;;;20.33;66.92;101951.34;5055046;28;19916;-87
2022/07/13 01:40:20;;;;;;;;;;;;;;;20.33;67.15;101951.34;5055439;28;19996;-88
2022/07/13 01:42:45;;;;;;;;;;;;;;;20.32;66.62;101952.25;5055045;28;19920;-88
2022/07/13 01:45:11;;;;;;;;;;;;;;;20.31;66.84;101959.31;5054708;28;20003;-87
2022/07/13 01:47:37;;;;;;;;;;;;;;;20.32;66.56;101946.97;5055328;28;19919;-88
2022/07/13 01:50:02;;;;;;;;;;;;;;;20.31;66.52;101948.75;5054738;28;19917;-88
2022/07/13 01:52:28;;;;;;;;;;;;;;;20.32;66.20;101946.97;5055222;28;19913;-88
2022/07/13 01:54:53;;;;;;;;;;;;;;;20.33;66.34;101938.16;5054654;28;20007;-87
2022/07/13 01:57:18;;;;;;;;;;;;;;;20.31;66.45;101935.59;5054958;28;20376;-88
2022/07/13 01:59:43;;;;;;;;;;;;;;;20.30;66.36;101946.16;5055247;28;19915;-88
2022/07/13 02:02:08;;;;;;;;;;;;;;;20.28;66.45;101935.69;5053799;28;19920;-87
2022/07/13 02:04:33;;;;;;;;;;;;;;;20.27;66.51;101943.66;5054789;28;19920;-87
2022/07/13 02:06:58;;;;;;;;;;;;;;;20.27;66.85;101938.38;5054534;28;19952;-87
2022/07/13 02:09:24;;;;;;;;;;;;;;;20.25;66.88;101937.59;5053626;28;19921;-87
2022/07/13 02:11:49;;;;;;;;;;;;;;;20.21;66.76;101921.91;5054064;28;19919;-87
2022/07/13 02:14:14;;;;;;;;;;;;;;;20.20;66.70;101933.34;5054514;28;19917;-87
2022/07/13 02:16:39;;;;;;;;;;;;;;;20.18;66.66;101929.06;5054260;28;19912;-87
2022/07/13 02:19:04;;;;;;;;;;;;;;;20.18;66.96;101918.53;5053983;28;19944;-87
2022/07/13 02:21:29;;;;;;;;;;;;;;;20.17;67.42;101908.91;5054479;28;19920;-87
2022/07/13 02:23:55;;;;;;;;;;;;;;;20.14;66.83;101911.66;5053694;28;19954;-87
2022/07/13 02:26:20;;;;;;;;;;;;;;;20.16;66.38;101923.84;5054571;28;19938;-87
2022/07/13 02:28:45;;;;;;;;;;;;;;;20.18;66.51;101915.88;5054447;28;20249;-87
2022/07/13 02:31:10;;;;;;;;;;;;;;;20.21;66.36;101918.38;5053395;28;19913;-87
2022/07/13 02:33:36;;;;;;;;;;;;;;;20.20;66.42;101917.53;5054359;28;19920;-88
2022/07/13 02:36:01;;;;;;;;;;;;;;;20.20;66.10;101912.25;5053945;28;20011;-87
2022/07/13 02:38:27;;;;;;;;;;;;;;;20.21;66.05;101906.06;5053460;28;19909;-87
2022/07/13 02:40:52;;;;;;;;;;;;;;;20.18;66.35;101900.91;5053914;28;19912;-87
2022/07/13 02:43:17;;;;;;;;;;;;;;;20.17;66.32;101895.72;5054285;28;19913;-87
2022/07/13 02:45:42;;;;;;;;;;;;;;;20.15;66.41;101894.91;5053419;28;19925;-87
2022/07/13 02:48:07;;;;;;;;;;;;;;;20.12;66.60;101885.38;5043290;28;19962;-87
2022/07/13 02:50:32;;;;;;;;;;;;;;;20.11;66.23;101882.75;5052617;28;19912;-87
2022/07/13 02:52:58;;;;;;;;;;;;;;;20.10;66.08;101878.44;5052615;28;19912;-87
2022/07/13 02:55:23;;;;;;;;;;;;;;;20.09;64.34;101892.53;5053707;28;19921;-87
2022/07/13 02:57:48;;;;;;;;;;;;;;;20.15;65.22;101895.75;5053535;28;19924;-87
2022/07/13 03:00:14;;;;;;;;;;;;;;;20.18;65.70;101900.91;5052950;28;19912;-87
2022/07/13 03:02:39;;;;;;;;;;;;;;;20.17;65.37;101899.19;5054012;28;19912;-87
2022/07/13 03:05:04;;;;;;;;;;;;;;;20.18;65.46;101889.53;5053039;28;20376;-87
2022/07/13 03:07:29;;;;;;;;;;;;;;;20.19;65.25;101886.81;5053256;28;19914;-87
2022/07/13 03:09:55;;;;;;;;;;;;;;;20.23;64.82;101895.47;5053101;28;19924;-87
2022/07/13 03:12:20;;;;;;;;;;;;;;;20.24;64.60;101896.34;5053403;28;20357;-88
2022/07/13 03:14:45;;;;;;;;;;;;;;;20.25;64.80;101898.91;5052898;28;19913;-88
2022/07/13 03:17:10;;;;;;;;;;;;;;;20.26;64.80;101899.78;5053148;28;19944;-87
2022/07/13 03:19:36;;;;;;;;;;;;;;;20.26;65.00;101889.25;5052651;28;19912;-87
2022/07/13 03:22:04;;;;;;;;;;;;;;;20.25;64.95;101890.16;5053176;28;19970;-87
2022/07/13 03:24:29;;;;;;;;;;;;;;;20.25;64.78;101887.53;5053188;28;19916;-87
2022/07/13 03:26:54;;;;;;;;;;;;;;;20.25;65.00;101888.34;5052398;28;19966;-86
2022/07/13 03:29:20;;;;;;;;;;;;;;;20.25;64.69;101883.09;5053268;28;19912;-87
2022/07/13 03:31:45;;;;;;;;;;;;;;;20.25;64.86;101883.09;5053472;28;19958;-87
2022/07/13 03:34:12;;;;;;;;;;;;;;;20.27;64.67;101877.75;5052250;28;19960;-87
2022/07/13 03:36:38;;;;;;;;;;;;;;;20.25;64.89;101872.53;5053127;28;19959;-87
2022/07/13 03:39:03;;;;;;;;;;;;;;;20.27;64.48;101868.06;5052959;28;19913;-86
2022/07/13 03:41:28;;;;;;;;;;;;;;;20.27;64.36;101875.97;5052867;28;20375;-87
2022/07/13 03:43:53;;;;;;;;;;;;;;;20.29;64.71;101887.34;5052845;28;19916;-86
2022/07/13 03:46:18;;;;;;;;;;;;;;;20.28;64.57;101876.84;5052974;28;19935;-87
2022/07/13 03:48:44;;;;;;;;;;;;;;;20.26;64.74;101883.97;5052732;28;19913;-87
2022/07/13 03:51:09;;;;;;;;;;;;;;;20.25;64.23;101874.34;5052877;28;20292;-86
2022/07/13 03:53:34;;;;;;;;;;;;;;;20.25;63.84;101866.44;5053030;28;19913;-87
2022/07/13 03:55:59;;;;;;;;;;;;;;;20.30;63.77;101877.63;5052209;28;19962;-87
2022/07/13 03:58:25;;;;;;;;;;;;;;;20.32;63.94;101874.00;5053466;28;20368;-87
2022/07/13 04:00:50;;;;;;;;;;;;;;;20.33;63.84;101872.25;5052865;28;20368;-87
2022/07/13 04:03:15;;;;;;;;;;;;;;;20.35;63.22;101873.06;5052143;28;19913;-87
2022/07/13 04:05:40;;;;;;;;;;;;;;;20.40;63.60;101867.59;5052951;28;19916;-87
2022/07/13 04:08:05;;;;;;;;;;;;;;;20.42;63.11;101871.03;5052723;28;20402;-86
2022/07/13 04:10:30;;;;;;;;;;;;;;;20.44;63.04;101875.31;5052404;28;19916;-87
2022/07/13 04:12:58;;;;;;;;;;;;;;;20.46;62.90;101876.09;5052348;28;19912;-86
2022/07/13 04:15:23;;;;;;;;;;;;;;;20.46;62.63;101873.47;5052770;28;19912;-87
2022/07/13 04:17:48;;;;;;;;;;;;;;;20.48;62.85;101865.50;5051984;28;19916;-87
2022/07/13 04:20:14;;;;;;;;;;;;;;;20.49;63.00;101859.28;5052493;28;20320;-87
2022/07/13 04:22:39;;;;;;;;;;;;;;;20.49;62.29;101854.88;5052698;28;19913;-87
2022/07/13 04:25:04;;;;;;;;;;;;;;;20.50;63.22;101853.94;5053987;28;20054;-87
2022/07/13 04:27:30;;;;;;;;;;;;;;;20.49;63.17;101849.59;5056977;28;20280;-87
2022/07/13 04:29:55;;;;;;;;;;;;;;;20.49;63.02;101849.59;5056007;28;19913;-86
2022/07/13 04:32:20;;;;;;;;;;;;;;;20.49;63.09;101849.59;5056629;28;20292;-87
2022/07/13 04:34:45;;;;;;;;;;;;;;;20.49;62.45;101844.31;5056529;28;20246;-87
2022/07/13 04:37:11;;;;;;;;;;;;;;;20.52;62.62;101843.34;5055676;28;20649;-87
2022/07/13 04:39:38;;;;;;;;;;;;;;;20.55;62.70;101845.00;5056454;28;19917;-86
2022/07/13 04:42:03;;;;;;;;;;;;;;;20.58;62.55;101847.53;5056451;28;19913;-88
2022/07/13 04:44:29;;;;;;;;;;;;;;;20.60;62.07;101848.31;5055562;28;19913;-87
2022/07/13 04:46:54;;;;;;;;;;;;;;;20.64;62.13;101852.53;5056075;28;19920;-86
2022/07/13 04:49:19;;;;;;;;;;;;;;;20.70;62.32;101854.91;5056202;28;20400;-87
2022/07/13 04:51:45;;;;;;;;;;;;;;;20.75;62.25;101847.69;5055359;28;20367;-86
2022/07/13 04:54:10;;;;;;;;;;;;;;;20.81;62.32;101850.09;5055518;28;20284;-87
2022/07/13 04:56:35;;;;;;;;;;;;;;;20.81;61.94;101849.22;5056461;28;19923;-87
2022/07/13 04:59:01;;;;;;;;;;;;;;;20.85;62.29;101850.81;5055188;28;19924;-84
2022/07/13 05:01:26;;;;;;;;;;;;;;;20.86;62.51;101846.38;5056200;28;19913;-86
2022/07/13 05:03:52;;;;;;;;;;;;;;;20.86;61.75;101846.38;5055494;28;20012;-83
2022/07/13 05:06:17;;;;;;;;;;;;;;;20.90;62.07;101848.81;5055616;28;19917;-85
2022/07/13 05:08:42;;;;;;;;;;;;;;;20.92;61.61;101841.69;5055563;28;19920;-84
2022/07/13 05:11:08;;;;;;;;;;;;;;;20.95;61.61;101838.94;5055556;28;19921;-85
2022/07/13 05:13:33;;;;;;;;;;;;;;;20.99;61.80;101831.72;5055353;28;20379;-84
2022/07/13 05:15:59;;;;;;;;;;;;;;;21.03;61.84;101841.25;5055324;28;20011;-85
2022/07/13 05:18:24;;;;;;;;;;;;;;;21.05;61.75;101846.44;5057633;28;19913;-85
2022/07/13 05:20:50;;;;;;;;;;;;;;;21.07;61.03;101840.16;5054801;28;20366;-85
2022/07/13 05:23:15;;;;;;;;;;;;;;;21.10;61.23;101836.56;5055863;28;19919;-85
2022/07/13 05:25:40;;;;;;;;;;;;;;;21.13;61.28;101837.28;5055027;28;19937;-86
2022/07/13 05:28:05;;;;;;;;;;;;;;;21.15;61.35;101842.47;5054788;28;19996;-87
2022/07/13 05:30:30;;;;;;;;;;;;;;;21.17;61.53;101835.34;5055617;28;19913;-86
2022/07/13 05:32:55;;;;;;;;;;;;;;;21.18;61.51;101834.41;5054643;28;19912;-85
2022/07/13 05:35:21;;;;;;;;;;;;;;;21.22;60.28;101837.78;5054562;28;19925;-87
2022/07/13 05:37:47;;;;;;;;;;;;;;;21.22;60.68;101843.91;5054686;28;20007;-86
2022/07/13 05:40:12;;;;;;;;;;;;;;;21.27;61.77;101851.66;5054535;28;19962;-86
2022/07/13 05:42:38;;;;;;;;;;;;;;;21.30;61.53;101854.13;5055235;28;20384;-87
2022/07/13 05:45:03;;;;;;;;;;;;;;;21.32;60.78;101854.91;5054700;28;19947;-86
2022/07/13 05:47:28;;;;;;;;;;;;;;;21.35;60.86;101862.72;5053994;28;19916;-86
2022/07/13 05:49:53;;;;;;;;;;;;;;;21.38;61.16;101859.94;5054687;28;19920;-86
2022/07/13 05:52:18;;;;;;;;;;;;;;;21.39;60.63;101860.78;5054778;28;19913;-86
2022/07/13 05:54:44;;;;;;;;;;;;;;;21.36;60.89;101867.06;5054268;28;19917;-86
2022/07/13 05:57:09;;;;;;;;;;;;;;;21.33;60.50;101869.00;5054606;28;20406;-86
2022/07/13 05:59:34;;;;;;;;;;;;;;;21.34;61.11;101868.91;5055468;28;19912;-85
2022/07/13 06:02:00;;;;;;;;;;;;;;;21.43;61.58;101868.50;5054297;28;20070;-86
2022/07/13 06:04:25;;;;;;;;;;;;;;;21.57;61.13;101873.16;5054667;28;20288;-86
2022/07/13 06:06:50;;;;;;;;;;;;;;;21.71;61.50;101864.66;5054457;28;20384;-85
2022/07/13 06:09:15;;;;;;;;;;;;;;;21.80;61.61;101871.25;5053492;28;19917;-85
2022/07/13 06:11:40;;;;;;;;;;;;;;;21.87;61.41;101872.72;5055268;28;19924;-88
2022/07/13 06:14:06;;;;;;;;;;;;;;;21.93;61.15;101875.97;5055911;28;19919;-92
2022/07/13 06:16:31;;;;;;;;;;;;;;;21.98;61.41;101872.19;5056007;28;19924;-89
2022/07/13 06:18:57;;;;;;;;;;;;;;;22.05;61.54;101860.41;5054785;28;20369;-87
2022/07/13 06:21:22;;;;;;;;;;;;;;;22.12;61.03;101863.63;5054422;28;19982;-85
2022/07/13 06:23:47;;;;;;;;;;;;;;;22.17;60.28;101879.25;5053860;28;20007;-87
2022/07/13 06:26:12;;;;;;;;;;;;;;;22.21;60.86;101868.47;5054678;28;19958;-87
2022/07/13 06:28:37;;;;;;;;;;;;;;;22.24;60.37;101864.81;5054559;28;19912;-89
2022/07/13 06:31:03;;;;;;;;;;;;;;;22.28;60.43;101870.78;5053980;28;19913;-88
2022/07/13 06:33:28;;;;;;;;;;;;;;;22.34;60.78;101866.06;5055181;28;19956;-88
2022/07/13 06:35:53;;;;;;;;;;;;;;;22.47;60.23;101862.84;5062244;28;19968;-89
2022/07/13 06:38:18;;;;;;;;;;;;;;;22.72;60.31;101864.28;5056686;28;19959;-88
2022/07/13 06:40:46;;;;;;;;;;;;;;;22.85;59.45;101856.56;5055767;28;19913;-90
2022/07/13 06:43:11;;;;;;;;;;;;;;;22.93;60.21;101859.66;5054217;28;19917;-88
2022/07/13 06:45:36;;;;;;;;;;;;;;;23.05;59.81;101866.97;5053738;28;19939;-89
2022/07/13 06:48:01;;;;;;;;;;;;;;;23.14;60.77;101865.63;5053029;28;20407;-89
2022/07/13 06:50:27;;;;;;;;;;;;;;;23.20;60.27;101860.03;5054743;28;19916;-89
2022/07/13 06:52:52;;;;;;;;;;;;;;;23.23;57.44;101865.19;5054042;28;19912;-88
2022/07/13 06:55:17;;;;;;;;;;;;;;;23.22;60.01;101858.16;5053733;28;20289;-88
2022/07/13 06:57:43;;;;;;;;;;;;;;;23.26;59.38;101853.56;5054141;28;19962;-87
2022/07/13 07:00:09;;;;;;;;;;;;;;;23.32;59.71;101861.19;5053734;28;19920;-89
2022/07/13 07:02:36;;;;;;;;;;;;;;;23.40;58.37;101858.16;5059731;28;20371;-89
2022/07/13 07:05:01;;;;;;;;;;;;;;;23.53;59.20;101860.97;5052939;28;19920;-86
2022/07/13 07:07:26;;;;;;;;;;;;;;;23.56;58.58;101866.97;5056844;28;20439;-78
2022/07/13 07:09:51;;;;;;;;;;;;;;;23.60;58.93;101875.59;5052447;28;19917;-81
2022/07/13 07:12:17;;;;;;;;;;;;;;;23.65;59.28;101870.91;5052705;28;19963;-80
2022/07/13 07:14:43;;;;;;;;;;;;;;;23.71;59.54;101869.72;5053414;28;19913;-79
2022/07/13 07:17:08;;;;;;;;;;;;;;;23.74;59.51;101870.41;5053168;28;19950;-85
2022/07/13 07:19:33;;;;;;;;;;;;;;;23.77;59.28;101874.69;5052305;28;19913;-87
2022/07/13 07:21:58;;;;;;;;;;;;;;;23.75;59.33;101872.13;5053047;28;19913;-86
2022/07/13 07:24:24;;;;;;;;;;;;;;;23.73;59.77;101873.16;5053452;28;19988;-84
2022/07/13 07:26:49;;;;;;;;;;;;;;;23.80;59.69;101871.03;5052274;28;19914;-85
2022/07/13 07:29:14;;;;;;;;;;;;;;;24.16;59.52;101865.47;5053295;28;19912;-87
2022/07/13 07:31:40;;;;;;;;;;;;;;;24.63;58.78;101853.03;5053619;28;19913;-88
2022/07/13 07:34:05;;;;;;;;;;;;;;;24.85;57.13;101857.09;5052882;28;20011;-88
2022/07/13 07:36:30;;;;;;;;;;;;;;;24.87;58.41;101851.72;5053849;28;19912;-87
2022/07/13 07:38:56;;;;;;;;;;;;;;;24.87;57.78;101862.34;5053536;28;19913;-89
2022/07/13 07:41:21;;;;;;;;;;;;;;;24.86;58.12;101858.81;5053825;28;19917;-89
2022/07/13 07:43:47;;;;;;;;;;;;;;;24.87;57.63;101851.72;5053778;28;20352;-93
2022/07/13 07:46:12;;;;;;;;;;;;;;;24.89;58.33;101853.34;5054189;28;20012;-91
2022/07/13 07:48:37;;;;;;;;;;;;;;;24.94;58.23;101858.34;5053869;28;20000;-91
2022/07/13 07:51:03;;;;;;;;;;;;;;;24.97;58.40;101850.22;5053966;28;19915;-92
2022/07/13 07:53:28;;;;;;;;;;;;;;;25.04;58.99;101856.84;5054326;28;20056;-89
2022/07/13 07:55:53;;;;;;;;;;;;;;;25.10;58.63;101851.19;5053723;28;19912;-87
2022/07/13 07:58:18;;;;;;;;;;;;;;;25.19;58.63;101856.88;5052416;28;19936;-87
2022/07/13 08:00:44;;;;;;;;;;;;;;;25.24;58.49;101860.94;5057175;28;19920;-85
2022/07/13 08:03:10;;;;;;;;;;;;;;;25.26;57.78;101848.44;5056040;28;20008;-86
2022/07/13 08:05:35;;;;;;;;;;;;;;;25.25;59.04;101848.50;5056883;28;19936;-86
2022/07/13 08:08:01;;;;;;;;;;;;;;;25.21;58.12;101854.97;5056407;28;20082;-87
2022/07/13 08:10:27;;;;;;;;;;;;;;;25.19;59.10;101848.91;5056023;28;20563;-89
2022/07/13 08:12:53;;;;;;;;;;;;;;;25.25;58.82;101859.13;5054824;28;20015;-87
2022/07/13 08:15:18;;;;;;;;;;;;;;;25.36;58.86;101861.16;5055903;28;19966;-87
2022/07/13 08:17:43;;;;;;;;;;;;;;;25.43;58.36;101855.38;5057084;28;19920;-88
2022/07/13 08:20:11;;;;;;;;;;;;;;;25.46;58.71;101864.97;5055757;28;19974;-89
2022/07/13 08:22:37;;;;;;;;;;;;;;;25.48;58.25;101871.03;5054081;28;19913;-87
2022/07/13 08:25:02;;;;;;;;;;;;;;;25.48;58.98;101868.38;5055896;28;19991;-84
2022/07/13 08:27:28;;;;;;;;;;;;;;;25.52;58.65;101864.56;5055619;28;19924;-87
2022/07/13 08:29:53;;;;;;;;;;;;;;;25.62;58.58;101872.81;5053733;28;20034;-86
2022/07/13 08:32:18;;;;;;;;;;;;;;;25.69;58.47;101868.81;5056627;28;19919;-86
2022/07/13 08:40:11;;;;;;;;;;;;;;;26.07;58.19;101867.28;5055929;28;20288;-83
2022/07/13 08:42:37;;;;;;;;;;;;;;;26.18;58.57;101861.31;5056486;28;19913;-84
2022/07/13 08:45:03;;;;;;;;;;;;;;;26.25;57.98;101867.09;5055296;28;20281;-84
2022/07/13 08:47:31;;;;;;;;;;;;;;;26.26;57.71;101866.97;5056136;28;19917;-84
2022/07/13 08:50:03;;;;;;;;;;;;;;;26.29;58.20;101872.09;5050111;28;20023;-84
2022/07/13 08:52:29;;;;;;;;;;;;;;;26.33;57.68;101870.09;5044729;28;19923;-85
2022/07/13 08:54:55;;;;;;;;;;;;;;;26.32;57.30;101879.91;5049625;28;19913;-84
2022/07/13 08:57:20;;;;;;;;;;;;;;;26.33;56.85;101876.28;5054888;28;20474;-84
2022/07/13 08:59:46;;;;;;;;;;;;;;;26.38;57.19;101872.44;5055654;28;19916;-83
2022/07/13 09:02:11;;;;;;;;;;;;;;;26.48;56.38;101866.41;5055440;28;20333;-85
2022/07/13 09:04:36;;;;;;;;;;;;;;;26.60;56.74;101862.06;5055237;28;19913;-83
2022/07/13 09:07:01;;;;;;;;;;;;;;;26.66;56.98;101864.34;5054832;28;19958;-83
2022/07/13 09:09:28;;;;;;;;;;;;;;;26.76;56.84;101874.34;5052252;28;19923;-82
2022/07/13 09:12:08;;;;;;;;;;;;;;;26.84;56.09;101872.03;5053429;28;19917;-83
2022/07/13 09:14:33;;;;;;;;;;;;;;;26.95;56.37;101880.16;5055772;28;19924;-83
2022/07/13 09:16:58;;;;;;;;;;;;;;;27.02;54.72;101883.25;5055285;28;20389;-83
2022/07/13 09:19:25;;;;;;;;;;;;;;;27.05;55.71;101880.38;5054816;28;20018;-84
2022/07/13 09:21:51;;;;;;;;;;;;;;;27.11;55.34;101881.75;5053451;28;19913;-84
2022/07/13 09:24:16;;;;;;;;;;;;;;;27.12;53.73;101876.31;5049114;28;19978;-83
2022/07/13 09:26:42;;;;;;;;;;;;;;;27.15;54.99;101885.91;5054604;28;19912;-83
2022/07/13 09:29:08;;;;;;;;;;;;;;;27.22;55.22;101895.19;5054730;28;19966;-82
2022/07/13 09:31:50;;;;;;;;;;;;;;;27.35;54.77;101891.66;5055568;28;19944;-85
2022/07/13 09:34:15;;;;;;;;;;;;;;;27.58;52.25;101890.88;5054744;28;19966;-85
2022/07/13 09:36:40;;;;;;;;;;;;;;;27.67;52.76;101889.38;5049697;28;19917;-85
2022/07/13 09:39:11;;;;;;;;;;;;;;;27.68;52.87;101890.25;5037364;28;19913;-85
2022/07/13 09:41:37;;;;;;;;;;;;;;;27.65;53.71;101893.13;5053959;28;20292;-85
2022/07/13 09:46:51;;;;;;;;;;;;;;;27.65;54.37;101903.81;5054421;28;19923;-86
2022/07/13 09:49:17;;;;;;;;;;;;;;;27.59;54.34;101892.59;5055053;28;19920;-85
2022/07/13 09:51:44;;;;;;;;;;;;;;;27.48;52.40;101887.19;5054395;28;19916;-85
2022/07/13 09:54:11;;;;;;;;;;;;;;;27.32;51.95;101889.22;5053795;28;19927;-85
2022/07/13 09:56:36;;;;;;;;;;;;;;;27.23;53.30;101888.03;5055054;28;19955;-84
2022/07/13 09:59:04;;;;;;;;;;;;;;;27.18;53.98;101890.19;5054888;28;19963;-85
2022/07/13 10:01:29;;;;;;;;;;;;;;;27.17;54.08;101893.81;5054203;28;19921;-85
2022/07/13 10:03:55;;;;;;;;;;;;;;;27.15;54.13;101890.38;5054383;28;20257;-85
2022/07/13 10:06:21;;;;;;;;;;;;;;;27.21;54.37;101903.28;5054490;28;19920;-85
2022/07/13 10:08:46;;;;;;;;;;;;;;;27.37;52.78;101900.38;5053755;28;19917;-84
2022/07/13 10:11:12;;;;;;;;;;;;;;;27.41;52.30;101897.41;5053577;28;20288;-84
2022/07/13 10:13:37;;;;;;;;;;;;;;;27.50;53.28;101901.25;5054257;28;20379;-84
2022/07/13 10:16:03;;;;;;;;;;;;;;;27.55;53.70;101900.94;5053534;28;19934;-84
2022/07/13 10:18:30;;;;;;;;;;;;;;;27.56;53.98;101892.84;5054470;28;19920;-84
2022/07/13 10:21:04;;;;;;;;;;;;;;;27.59;52.99;101894.44;5054068;28;19935;-85
2022/07/13 10:23:32;;;;;;;;;;;;;;;27.65;53.35;101896.63;5038365;28;20361;-84
2022/07/13 10:25:57;;;;;;;;;;;;;;;27.81;53.01;101899.06;5052634;28;19913;-84
2022/07/13 10:28:23;;;;;;;;;;;;;;;27.85;50.58;101903.22;5054288;28;20003;-84
2022/07/13 10:30:49;;;;;;;;;;;;;;;27.84;53.57;101911.34;5053225;28;19912;-85
2022/07/13 10:33:31;;;;;;;;;;;;;;;27.86;53.38;101912.94;5053766;28;20023;-82
2022/07/13 10:36:11;;;;;;;;;;;;;;;27.94;52.93;101908.84;5052976;28;19916;-84
2022/07/13 10:38:42;;;;;;;;;;;;;;;27.93;52.98;101915.13;5054379;28;19919;-84
2022/07/13 10:41:20;;;;;;;;;;;;;;;27.83;52.19;101915.81;5054053;28;19912;-84
2022/07/13 10:44:24;;;;;;;;;;;;;;;27.88;51.96;101919.00;5053507;28;19916;-84
2022/07/13 10:46:50;;;;;;;;;;;;;;;28.15;50.28;101912.63;5053888;28;19913;-83
2022/07/13 10:49:30;;;;;;;;;;;;;;;28.27;50.40;101918.03;5054181;28;19919;-84
2022/07/13 10:51:57;;;;;;;;;;;;;;;28.29;47.86;101916.09;5052879;28;19912;-83
2022/07/13 10:54:23;;;;;;;;;;;;;;;28.30;50.58;101918.69;5053354;28;19951;-83
2022/07/13 10:57:07;;;;;;;;;;;;;;;28.36;49.86;101914.69;5053117;28;19935;-83
2022/07/13 10:59:44;;;;;;;;;;;;;;;28.31;50.36;101916.84;5053630;28;20356;-84
2022/07/13 11:02:29;;;;;;;;;;;;;;;28.29;50.76;101918.78;5053681;28;19923;-84
2022/07/13 11:04:56;;;;;;;;;;;;;;;28.33;50.70;101928.28;5052645;28;19912;-83
2022/07/13 11:07:38;;;;;;;;;;;;;;;28.34;50.61;101924.63;5052687;28;19917;-83
2022/07/13 11:10:22;;;;;;;;;;;;;;;28.27;49.07;101931.38;5053271;28;19916;-84
2022/07/13 11:13:01;;;;;;;;;;;;;;;28.25;50.02;101923.50;5052120;28;19912;-84
2022/07/13 11:15:50;;;;;;;;;;;;;;;28.31;51.08;101925.72;5053410;28;19913;-83
2022/07/13 11:18:21;;;;;;;;;;;;;;;28.46;50.53;101922.84;5044639;28;19964;-83
2022/07/13 11:21:01;;;;;;;;;;;;;;;28.62;51.06;101919.88;5053534;28;19953;-82
2022/07/13 11:26:28;;;;;;;;;;;;;;;29.17;49.18;101913.97;5052180;28;19923;-82
2022/07/13 11:28:59;;;;;;;;;;;;;;;29.49;48.33;101921.34;5053192;28;19917;-83
2022/07/13 11:31:24;;;;;;;;;;;;;;;29.57;47.86;101922.41;5053185;28;19916;-83
2022/07/13 11:33:50;;;;;;;;;;;;;;;29.59;47.91;101923.13;5051584;28;20357;-83
2022/07/13 11:36:22;;;;;;;;;;;;;;;29.55;48.66;101929.72;5052897;28;19912;-82
2022/07/13 11:38:48;;;;;;;;;;;;;;;29.43;48.25;101909.31;5053445;28;19952;-82
2022/07/13 11:41:20;;;;;;;;;;;;;;;29.27;48.09;101910.47;5052188;28;19944;-82
2022/07/13 11:43:46;;;;;;;;;;;;;;;29.12;48.36;101914.31;5053095;28;19912;-82
2022/07/13 11:46:11;;;;;;;;;;;;;;;29.06;48.44;101907.63;5052165;28;19916;-83
2022/07/13 11:48:36;;;;;;;;;;;;;;;29.05;48.52;101918.47;5053111;28;19922;-82
2022/07/13 11:51:05;;;;;;;;;;;;;;;29.00;48.53;101918.81;5052928;28;19966;-83
2022/07/13 11:53:31;;;;;;;;;;;;;;;28.94;48.13;101909.44;5052662;28;19912;-82
2022/07/13 11:56:03;;;;;;;;;;;;;;;28.92;46.67;101916.72;5051104;28;19924;-82
2022/07/13 11:58:34;;;;;;;;;;;;;;;28.90;45.67;101920.50;5052052;28;19913;-83
2022/07/13 12:01:00;;;;;;;;;;;;;;;28.95;47.94;101904.94;5051733;28;19917;-81
2022/07/13 12:03:25;;;;;;;;;;;;;;;29.05;46.71;101905.94;5053125;28;20057;-81
2022/07/13 12:05:51;;;;;;;;;;;;;;;29.06;46.17;101910.31;5052827;28;20039;-81
2022/07/13 12:08:17;;;;;;;;;;;;;;;29.13;46.68;101902.66;5051505;28;20380;-81
2022/07/13 12:10:42;;;;;;;;;;;;;;;29.31;45.59;101915.59;5052925;28;19919;-82
2022/07/13 12:13:07;;;;;;;;;;;;;;;29.45;46.78;101912.69;5052246;28;19923;-82
2022/07/13 12:15:32;;;;;;;;;;;;;;;29.65;46.68;101907.59;5051686;28;19912;-82
2022/07/13 12:18:02;;;;;;;;;;;;;;;29.94;45.18;101902.59;5052026;28;19920;-82
2022/07/13 12:20:31;;;;;;;;;;;;;;;30.24;46.00;101922.44;5051413;22;19924;-83
2022/07/13 12:22:57;;;;;;;;;;;;;;;30.40;43.93;101918.50;5021652;28;19918;-83
2022/07/13 12:25:32;;;;;;;;;;;;;;;30.37;44.20;101922.25;5012999;28;19928;-83
2022/07/13 12:27:59;;;;;;;;;;;;;;;30.23;43.48;101918.06;5012542;28;19924;-83
2022/07/13 12:30:24;;;;;;;;;;;;;;;30.15;45.60;101915.19;5011887;28;19943;-83
2022/07/13 12:32:59;;;;;;;;;;;;;;;30.11;46.14;101909.22;5012592;28;19918;-83
2022/07/13 12:35:27;;;;;;;;;;;;;;;30.09;44.76;101913.00;5012171;28;19923;-83
2022/07/13 12:37:53;;;;;;;;;;;;;;;29.96;45.47;101919.34;5012008;28;19924;-83
2022/07/13 12:40:38;;;;;;;;;;;;;;;29.82;44.40;101916.94;5012564;28;19917;-83
2022/07/13 12:43:03;;;;;;;;;;;;;;;29.64;44.71;101925.44;5010775;28;19917;-83